Time;durP1;ratioP1;P1;durP2;ratioP2;P2;SDS_P1;SDS_P2;PMS_P1;PMS_P2;Temp;Humidity;BMP_temperature;BMP_pressure;BME280_temperature;BME280_humidity;BME280_pressure;Samples;Min_cycle;Max_cycle;Signal;HPM_P1;HPM_P2
2022/07/01 00:00:24;;;;;;;9.27;3.97;;;11.70;99.90;;;;;;4994380;28;20026;-79
2022/07/01 00:02:51;;;;;;;10.82;6.03;;;11.80;99.90;;;;;;4995147;28;20026;-79
2022/07/01 00:05:19;;;;;;;9.00;4.18;;;11.70;99.90;;;;;;4995274;28;20381;-78
2022/07/01 00:07:47;;;;;;;6.65;4.18;;;11.70;99.90;;;;;;4994745;28;20025;-79
2022/07/01 00:10:15;;;;;;;10.18;4.72;;;11.80;99.90;;;;;;4994495;28;20060;-79
2022/07/01 00:12:42;;;;;;;10.10;4.53;;;11.80;99.90;;;;;;4994605;28;20026;-78
2022/07/01 00:15:10;;;;;;;7.82;4.63;;;11.80;99.90;;;;;;4992883;28;20026;-79
2022/07/01 00:17:37;;;;;;;9.35;4.55;;;11.80;99.90;;;;;;4994129;28;20478;-79
2022/07/01 00:20:05;;;;;;;7.95;4.40;;;11.90;99.90;;;;;;4993872;28;20026;-79
2022/07/01 00:22:33;;;;;;;9.77;3.58;;;11.90;99.90;;;;;;4994000;28;20022;-77
2022/07/01 00:25:00;;;;;;;10.68;3.22;;;11.90;99.90;;;;;;4992595;28;20026;-77
2022/07/01 00:27:28;;;;;;;8.02;3.92;;;11.80;99.90;;;;;;4994285;28;20023;-78
2022/07/01 00:29:55;;;;;;;6.80;4.18;;;11.80;99.90;;;;;;4994382;28;20022;-77
2022/07/01 00:32:22;;;;;;;7.03;3.88;;;11.80;99.90;;;;;;4993934;28;20027;-77
2022/07/01 00:34:50;;;;;;;8.18;4.50;;;11.90;99.90;;;;;;4992272;28;20044;-78
2022/07/01 00:37:17;;;;;;;6.90;4.57;;;11.90;99.90;;;;;;4991810;28;20018;-79
2022/07/01 00:39:44;;;;;;;5.85;3.67;;;11.90;99.90;;;;;;4992489;28;20037;-79
2022/07/01 00:42:12;;;;;;;7.10;4.68;;;12.00;99.90;;;;;;4992327;28;20109;-78
2022/07/01 00:44:39;;;;;;;9.27;4.60;;;12.00;99.90;;;;;;4993586;28;20022;-76
2022/07/01 00:47:10;;;;;;;8.25;4.75;;;12.20;99.90;;;;;;4993544;28;20029;-77
2022/07/01 00:49:38;;;;;;;6.60;4.72;;;12.10;99.90;;;;;;4994164;28;20050;-77
2022/07/01 00:52:08;;;;;;;9.02;4.90;;;12.10;99.90;;;;;;4993454;28;20602;-77
2022/07/01 00:54:37;;;;;;;7.78;4.30;;;12.20;99.90;;;;;;4993370;28;20029;-77
2022/07/01 00:57:09;;;;;;;6.45;4.47;;;12.20;99.90;;;;;;4993542;28;20026;-77
2022/07/01 00:59:38;;;;;;;6.35;4.10;;;12.10;99.90;;;;;;4993433;28;20101;-77
2022/07/01 01:02:07;;;;;;;8.07;4.78;;;12.10;99.90;;;;;;4992054;28;20089;-77
2022/07/01 01:04:35;;;;;;;9.45;4.35;;;12.10;99.90;;;;;;4993561;28;20399;-77
2022/07/01 01:07:03;;;;;;;8.98;4.20;;;12.20;99.90;;;;;;4993702;28;20078;-77
2022/07/01 01:09:30;;;;;;;8.05;4.50;;;12.20;99.90;;;;;;4992122;28;20027;-78
2022/07/01 01:11:58;;;;;;;8.43;4.25;;;12.10;99.90;;;;;;4993460;28;20042;-77
2022/07/01 01:14:26;;;;;;;7.82;4.72;;;12.10;99.90;;;;;;4993459;28;20088;-78
2022/07/01 01:16:54;;;;;;;10.90;4.50;;;12.10;99.90;;;;;;4993562;28;20097;-77
2022/07/01 01:19:21;;;;;;;8.68;4.20;;;12.10;99.90;;;;;;4993408;28;20019;-78
2022/07/01 01:21:48;;;;;;;8.32;4.18;;;12.10;99.90;;;;;;4993752;28;20018;-78
2022/07/01 01:24:16;;;;;;;9.25;4.97;;;12.20;99.90;;;;;;4992014;28;20109;-78
2022/07/01 01:26:43;;;;;;;9.18;4.57;;;12.20;99.90;;;;;;4992163;28;20034;-78
2022/07/01 01:29:10;;;;;;;5.65;3.83;;;12.20;99.90;;;;;;4994086;28;20025;-78
2022/07/01 01:31:38;;;;;;;7.93;4.15;;;12.20;99.90;;;;;;4992278;28;20479;-78
2022/07/01 01:34:05;;;;;;;7.57;4.63;;;12.20;99.90;;;;;;4993168;28;20076;-78
2022/07/01 01:36:32;;;;;;;9.60;4.53;;;12.30;99.90;;;;;;4993337;28;20018;-78
2022/07/01 01:39:13;;;;;;;10.43;4.93;;;12.20;99.90;;;;;;4993248;28;20027;-78
2022/07/01 01:41:41;;;;;;;11.48;4.32;;;12.20;99.90;;;;;;4993227;28;20148;-78
2022/07/01 01:44:08;;;;;;;7.80;4.93;;;12.20;99.90;;;;;;4993307;28;20018;-78
2022/07/01 01:46:36;;;;;;;9.75;4.43;;;12.30;99.90;;;;;;4993333;28;20050;-79
2022/07/01 01:49:04;;;;;;;9.85;4.70;;;12.20;99.90;;;;;;4994182;28;20025;-79
2022/07/01 01:51:33;;;;;;;6.55;4.55;;;12.20;99.90;;;;;;4995653;28;20033;-78
2022/07/01 01:54:00;;;;;;;10.95;4.40;;;12.30;99.90;;;;;;4998308;28;20169;-80
2022/07/01 01:56:29;;;;;;;9.82;5.00;;;12.20;99.90;;;;;;4997966;28;20045;-80
2022/07/01 01:58:57;;;;;;;8.07;4.43;;;12.20;99.90;;;;;;4997800;28;20018;-80
2022/07/01 02:01:24;;;;;;;6.85;4.55;;;12.20;99.90;;;;;;4997619;28;20046;-79
2022/07/01 02:03:53;;;;;;;5.55;4.35;;;12.20;99.90;;;;;;4997528;28;20076;-80
2022/07/01 02:06:22;;;;;;;5.50;4.00;;;12.10;99.90;;;;;;4998240;28;20026;-79
2022/07/01 02:08:49;;;;;;;8.35;4.63;;;12.10;99.90;;;;;;4996579;28;20026;-80
2022/07/01 02:11:17;;;;;;;8.13;4.78;;;12.00;99.90;;;;;;4998066;28;20045;-80
2022/07/01 02:13:44;;;;;;;11.50;4.55;;;12.00;99.90;;;;;;4997247;28;20057;-80
2022/07/01 02:16:12;;;;;;;6.15;4.10;;;11.90;99.90;;;;;;4997590;28;20407;-80
2022/07/01 02:18:40;;;;;;;5.85;3.63;;;11.90;99.90;;;;;;4998140;28;20026;-80
2022/07/01 02:21:07;;;;;;;8.15;3.55;;;11.80;99.90;;;;;;5000608;28;20481;-79
2022/07/01 02:23:34;;;;;;;6.68;3.80;;;11.80;99.90;;;;;;5006754;28;20101;-79
2022/07/01 02:26:02;;;;;;;6.75;3.50;;;11.80;99.90;;;;;;5006481;28;20014;-79
2022/07/01 02:28:29;;;;;;;8.75;4.53;;;11.70;99.90;;;;;;5009839;28;20042;-80
2022/07/01 02:30:56;;;;;;;8.98;5.13;;;11.70;99.90;;;;;;5009965;28;20030;-80
2022/07/01 02:33:24;;;;;;;7.70;4.75;;;11.70;99.90;;;;;;5011861;28;20113;-79
2022/07/01 02:35:51;;;;;;;6.38;4.75;;;11.70;99.90;;;;;;5008015;28;20068;-78
2022/07/01 02:38:18;;;;;;;9.10;5.10;;;11.60;99.90;;;;;;4998399;28;20018;-80
2022/07/01 02:40:46;;;;;;;9.02;4.53;;;11.60;99.90;;;;;;4999824;28;20026;-80
2022/07/01 02:43:15;;;;;;;8.15;5.20;;;11.50;99.90;;;;;;5000916;28;20030;-80
2022/07/01 02:45:43;;;;;;;8.02;5.13;;;11.50;99.90;;;;;;5009448;28;20026;-81
2022/07/01 02:48:11;;;;;;;8.07;4.57;;;11.50;99.90;;;;;;5000969;28;20022;-77
2022/07/01 02:50:38;;;;;;;7.63;4.75;;;11.40;99.90;;;;;;4998620;28;20030;-78
2022/07/01 02:53:05;;;;;;;9.60;5.03;;;11.40;99.90;;;;;;4996423;28;20027;-79
2022/07/01 02:55:33;;;;;;;8.98;4.78;;;11.40;99.90;;;;;;4998824;28;20075;-79
2022/07/01 02:58:00;;;;;;;11.25;5.68;;;11.30;99.90;;;;;;4999947;28;20018;-79
2022/07/01 03:00:27;;;;;;;13.52;5.03;;;11.30;99.90;;;;;;4996656;28;20041;-79
2022/07/01 03:02:55;;;;;;;11.23;5.15;;;11.20;99.90;;;;;;4999883;28;20430;-79
2022/07/01 03:05:23;;;;;;;11.18;5.25;;;11.30;99.90;;;;;;4997113;28;20418;-79
2022/07/01 03:07:50;;;;;;;13.75;5.45;;;11.20;99.90;;;;;;4999079;28;20022;-79
2022/07/01 03:10:17;;;;;;;8.45;5.10;;;11.30;99.90;;;;;;4995397;28;20537;-79
2022/07/01 03:12:45;;;;;;;11.82;4.65;;;11.20;99.90;;;;;;4996416;28;20034;-80
2022/07/01 03:15:14;;;;;;;8.10;4.65;;;11.20;99.90;;;;;;4995893;28;20023;-79
2022/07/01 03:17:44;;;;;;;8.98;5.38;;;11.20;99.90;;;;;;4995403;28;20027;-79
2022/07/01 03:20:13;;;;;;;9.63;4.78;;;11.20;99.90;;;;;;4994626;28;20033;-79
2022/07/01 03:22:41;;;;;;;10.48;5.25;;;11.10;99.90;;;;;;4996546;28;20022;-79
2022/07/01 03:25:10;;;;;;;7.18;5.28;;;11.20;99.90;;;;;;4994560;28;20022;-79
2022/07/01 03:27:37;;;;;;;5.95;4.55;;;11.20;99.90;;;;;;4994790;28;20156;-80
2022/07/01 03:30:06;;;;;;;7.78;4.50;;;11.20;99.90;;;;;;4996207;28;20045;-79
2022/07/01 03:32:34;;;;;;;10.48;4.60;;;11.10;99.90;;;;;;4996779;28;20025;-79
2022/07/01 03:35:35;;;;;;;7.07;4.22;;;11.10;99.90;;;;;;4994745;28;20121;-79
2022/07/01 03:37:48;;;;;;;6.97;4.20;;;11.10;99.90;;;;;;4996499;28;20027;-78
2022/07/01 03:40:16;;;;;;;8.95;4.35;;;11.10;99.90;;;;;;4995363;28;20034;-80
2022/07/01 03:42:43;;;;;;;8.45;5.05;;;11.10;99.90;;;;;;4996231;28;20096;-79
2022/07/01 03:45:11;;;;;;;9.18;4.82;;;11.10;99.90;;;;;;4996397;28;20038;-80
2022/07/01 03:47:38;;;;;;;7.82;4.47;;;11.10;99.90;;;;;;4994584;28;20081;-79
2022/07/01 03:50:06;;;;;;;8.55;4.72;;;11.10;99.90;;;;;;4995717;28;20034;-79
2022/07/01 03:52:33;;;;;;;6.55;4.72;;;11.10;99.90;;;;;;4996697;28;20030;-79
2022/07/01 03:55:01;;;;;;;7.93;5.13;;;11.10;99.90;;;;;;4994559;28;20077;-79
2022/07/01 03:57:28;;;;;;;9.00;5.05;;;11.10;99.90;;;;;;4995255;28;20028;-80
2022/07/01 03:59:55;;;;;;;8.13;4.95;;;11.20;99.90;;;;;;4996200;28;20026;-79
2022/07/01 04:02:23;;;;;;;9.05;4.97;;;11.20;99.90;;;;;;4997843;28;20469;-79
2022/07/01 04:04:50;;;;;;;10.40;5.75;;;11.20;99.90;;;;;;4998292;28;20026;-80
2022/07/01 04:07:17;;;;;;;7.18;5.00;;;11.20;99.90;;;;;;4998439;28;20088;-80
2022/07/01 04:09:45;;;;;;;7.38;5.20;;;11.20;99.90;;;;;;4996146;28;20498;-80
2022/07/01 04:12:12;;;;;;;6.90;4.65;;;11.20;99.90;;;;;;4998333;28;20109;-80
2022/07/01 04:14:40;;;;;;;7.53;5.15;;;11.30;99.90;;;;;;4998591;28;20399;-81
2022/07/01 04:17:08;;;;;;;8.05;4.78;;;11.20;99.90;;;;;;4996233;28;20018;-80
2022/07/01 04:19:35;;;;;;;8.73;5.40;;;11.20;99.90;;;;;;5001041;28;20049;-79
2022/07/01 04:24:48;;;;;;;8.75;4.97;;;11.40;99.90;;;;;;5000676;28;20042;-80
2022/07/01 04:27:16;;;;;;;8.43;5.10;;;11.30;99.90;;;;;;5000480;28;20037;-80
2022/07/01 04:29:43;;;;;;;11.70;4.97;;;11.30;99.90;;;;;;5000833;28;20403;-80
2022/07/01 04:32:10;;;;;;;10.05;5.40;;;11.30;99.90;;;;;;5002706;28;20451;-77
2022/07/01 04:34:37;;;;;;;9.32;5.90;;;11.20;99.90;;;;;;4994283;28;20034;-76
2022/07/01 04:37:05;;;;;;;7.35;5.32;;;11.20;99.90;;;;;;4994181;28;20471;-77
2022/07/01 04:39:32;;;;;;;7.68;5.43;;;11.20;99.90;;;;;;4994033;28;20034;-76
2022/07/01 04:42:00;;;;;;;11.10;5.18;;;11.20;99.90;;;;;;4992400;28;20402;-76
2022/07/01 04:44:35;;;;;;;8.80;5.45;;;11.20;99.90;;;;;;4993753;28;20026;-76
2022/07/01 04:47:03;;;;;;;7.63;4.88;;;11.20;99.90;;;;;;4993897;28;20026;-76
2022/07/01 04:49:31;;;;;;;9.23;5.00;;;11.30;99.90;;;;;;4993781;28;20023;-76
2022/07/01 04:51:59;;;;;;;7.57;5.18;;;11.30;99.90;;;;;;4996771;28;20398;-77
2022/07/01 04:54:26;;;;;;;7.32;4.57;;;11.30;99.90;;;;;;4994696;28;20033;-77
2022/07/01 04:56:54;;;;;;;9.20;5.47;;;11.30;99.90;;;;;;4994093;28;20028;-78
2022/07/01 04:59:21;;;;;;;8.32;4.65;;;11.40;99.90;;;;;;4994043;28;20463;-77
2022/07/01 05:01:49;;;;;;;8.30;4.40;;;11.50;99.90;;;;;;4994136;28;20042;-77
2022/07/01 05:04:17;;;;;;;10.00;5.18;;;11.40;99.90;;;;;;4994303;28;20510;-77
2022/07/01 05:06:47;;;;;;;8.02;5.20;;;11.40;99.90;;;;;;4993344;28;20053;-76
2022/07/01 05:09:15;;;;;;;9.35;5.10;;;11.40;99.90;;;;;;4993814;28;20034;-76
2022/07/01 05:11:42;;;;;;;5.97;4.53;;;11.50;99.90;;;;;;4992238;28;20022;-76
2022/07/01 05:14:10;;;;;;;10.07;4.78;;;11.40;99.90;;;;;;4993218;28;20066;-76
2022/07/01 05:16:37;;;;;;;9.02;5.15;;;11.40;99.90;;;;;;4993203;28;20022;-76
2022/07/01 05:21:56;;;;;;;8.57;4.32;;;11.50;99.90;;;;;;4993440;28;20029;-76
2022/07/01 05:24:24;;;;;;;6.93;4.68;;;11.50;99.90;;;;;;4993604;28;20058;-76
2022/07/01 05:26:51;;;;;;;7.05;5.10;;;11.50;99.90;;;;;;4997041;28;20046;-76
2022/07/01 05:29:19;;;;;;;8.60;4.72;;;11.40;99.90;;;;;;4995677;28;20023;-75
2022/07/01 05:31:46;;;;;;;8.57;4.82;;;11.40;99.90;;;;;;4996967;28;20077;-76
2022/07/01 05:34:13;;;;;;;6.63;4.85;;;11.50;99.90;;;;;;4996786;28;20019;-76
2022/07/01 05:36:41;;;;;;;9.63;4.85;;;11.40;99.90;;;;;;4996980;28;20029;-76
2022/07/01 05:39:08;;;;;;;8.43;4.72;;;11.40;99.90;;;;;;4996921;28;20034;-76
2022/07/01 05:41:36;;;;;;;8.95;4.85;;;11.40;99.90;;;;;;4997179;28;20026;-76
2022/07/01 05:44:04;;;;;;;9.73;5.18;;;11.40;99.90;;;;;;4996646;28;20030;-76
2022/07/01 05:46:31;;;;;;;8.40;5.10;;;11.40;99.90;;;;;;4996807;28;20095;-76
2022/07/01 05:48:59;;;;;;;6.78;4.10;;;11.40;99.90;;;;;;4997005;28;20102;-76
2022/07/01 05:51:27;;;;;;;7.07;4.65;;;11.40;99.90;;;;;;4996754;28;20112;-76
2022/07/01 05:53:56;;;;;;;8.98;4.50;;;11.30;99.90;;;;;;4996574;28;20475;-76
2022/07/01 05:56:23;;;;;;;6.38;4.78;;;11.30;99.90;;;;;;4996558;28;20029;-75
2022/07/01 05:58:51;;;;;;;7.03;5.05;;;11.30;99.90;;;;;;4996454;28;20391;-76
2022/07/01 06:01:18;;;;;;;8.75;5.10;;;11.30;99.90;;;;;;4996220;28;20133;-76
2022/07/01 06:03:46;;;;;;;8.07;4.93;;;11.30;99.90;;;;;;4996464;28;20077;-76
2022/07/01 06:06:13;;;;;;;8.20;5.35;;;11.30;99.90;;;;;;4996368;28;20084;-76
2022/07/01 06:08:40;;;;;;;8.90;4.72;;;11.30;99.90;;;;;;4996497;28;20454;-75
2022/07/01 06:11:08;;;;;;;9.82;4.72;;;11.30;99.90;;;;;;4996248;28;20022;-76
2022/07/01 06:13:35;;;;;;;10.50;6.88;;;11.20;99.90;;;;;;4996378;28;20035;-76
2022/07/01 06:16:03;;;;;;;8.57;5.72;;;11.20;99.90;;;;;;4996107;28;20027;-76
2022/07/01 06:18:31;;;;;;;9.18;5.80;;;11.20;99.90;;;;;;4996201;28;20029;-74
2022/07/01 06:20:59;;;;;;;9.27;5.70;;;11.20;99.90;;;;;;4996259;28;20019;-77
2022/07/01 06:23:26;;;;;;;8.73;5.75;;;11.20;99.90;;;;;;4994997;28;20061;-76
2022/07/01 06:25:53;;;;;;;7.85;6.15;;;11.20;99.90;;;;;;4995713;28;20057;-76
2022/07/01 06:28:21;;;;;;;9.35;6.63;;;11.20;99.90;;;;;;4994774;28;20448;-76
2022/07/01 06:30:49;;;;;;;9.90;6.65;;;11.20;99.90;;;;;;4995990;28;20026;-77
2022/07/01 06:33:16;;;;;;;7.85;5.97;;;11.20;99.90;;;;;;4994625;28;20033;-75
2022/07/01 06:35:43;;;;;;;10.05;6.00;;;11.20;99.90;;;;;;4992917;28;20034;-76
2022/07/01 06:38:10;;;;;;;9.20;5.95;;;11.20;99.90;;;;;;4994379;28;20545;-76
2022/07/01 06:40:38;;;;;;;9.90;6.53;;;11.20;99.90;;;;;;4994235;28;20026;-76
2022/07/01 06:43:05;;;;;;;9.90;5.80;;;11.20;99.90;;;;;;4994137;28;20022;-76
2022/07/01 06:45:33;;;;;;;8.48;5.13;;;11.20;99.90;;;;;;4995501;28;20026;-76
2022/07/01 06:48:02;;;;;;;7.43;5.35;;;11.20;99.90;;;;;;4995642;28;20026;-75
2022/07/01 06:50:29;;;;;;;8.30;5.53;;;11.10;99.90;;;;;;4995555;28;20038;-75
2022/07/01 06:52:57;;;;;;;7.10;5.43;;;11.10;99.90;;;;;;4995663;28;20398;-75
2022/07/01 06:55:24;;;;;;;11.25;6.15;;;11.10;99.90;;;;;;4995507;28;20096;-74
2022/07/01 06:57:52;;;;;;;7.82;6.03;;;11.10;99.90;;;;;;4995579;28;20109;-76
2022/07/01 07:00:19;;;;;;;9.98;6.25;;;11.10;99.90;;;;;;4993761;28;20100;-76
2022/07/01 07:02:46;;;;;;;9.63;6.20;;;11.10;99.90;;;;;;4995472;28;20034;-76
2022/07/01 07:05:14;;;;;;;12.18;5.20;;;11.10;99.90;;;;;;4995556;28;20026;-76
2022/07/01 07:07:41;;;;;;;10.18;6.40;;;11.10;99.90;;;;;;4995325;28;20027;-76
2022/07/01 07:10:09;;;;;;;9.55;5.82;;;11.10;99.90;;;;;;4995344;28;20022;-77
2022/07/01 07:12:36;;;;;;;8.75;5.78;;;11.10;99.90;;;;;;4993905;28;20027;-77
2022/07/01 07:15:04;;;;;;;9.73;6.43;;;11.10;99.90;;;;;;4995163;28;20475;-75
2022/07/01 07:17:31;;;;;;;6.25;5.18;;;11.00;99.90;;;;;;4995387;28;20027;-77
2022/07/01 07:19:59;;;;;;;7.50;5.53;;;11.10;99.90;;;;;;4995049;28;20031;-76
2022/07/01 07:22:26;;;;;;;7.05;6.10;;;11.10;99.90;;;;;;4995111;28;20053;-75
2022/07/01 07:24:53;;;;;;;9.52;5.53;;;11.00;99.90;;;;;;4995077;28;20478;-75
2022/07/01 07:27:21;;;;;;;8.82;5.75;;;11.00;99.90;;;;;;4994881;28;20026;-76
2022/07/01 07:29:48;;;;;;;8.23;6.65;;;11.00;99.90;;;;;;4994958;28;20022;-75
2022/07/01 07:32:15;;;;;;;9.07;6.20;;;11.00;99.90;;;;;;4995037;28;20474;-75
2022/07/01 07:34:43;;;;;;;8.55;6.20;;;11.00;99.90;;;;;;4995169;28;20034;-74
2022/07/01 07:37:10;;;;;;;9.80;6.53;;;11.00;99.90;;;;;;4994809;28;20025;-75
2022/07/01 07:39:37;;;;;;;10.05;6.50;;;11.00;99.90;;;;;;4994815;28;20029;-75
2022/07/01 07:42:05;;;;;;;7.03;5.43;;;11.00;99.90;;;;;;4994731;28;20606;-75
2022/07/01 07:44:33;;;;;;;7.72;6.55;;;11.00;99.90;;;;;;4994523;28;20025;-74
2022/07/01 07:47:00;;;;;;;10.68;7.40;;;11.00;99.90;;;;;;4994200;28;20388;-75
2022/07/01 07:49:28;;;;;;;9.85;6.15;;;11.00;99.90;;;;;;4993116;28;20109;-75
2022/07/01 07:51:55;;;;;;;9.73;6.88;;;11.00;99.90;;;;;;4994512;28;20034;-75
2022/07/01 07:54:22;;;;;;;11.65;7.30;;;11.00;99.90;;;;;;4993011;28;20065;-74
2022/07/01 07:56:50;;;;;;;9.15;6.43;;;11.00;99.90;;;;;;4993066;28;20034;-74
2022/07/01 07:59:17;;;;;;;8.35;6.50;;;11.00;99.90;;;;;;4994286;28;20018;-74
2022/07/01 08:01:44;;;;;;;10.43;6.80;;;11.10;99.90;;;;;;4994086;28;20414;-74
2022/07/01 08:04:12;;;;;;;9.95;6.55;;;11.10;99.90;;;;;;4992910;28;20018;-75
2022/07/01 08:06:39;;;;;;;9.15;6.75;;;11.00;99.90;;;;;;4994238;28;20025;-74
2022/07/01 08:09:06;;;;;;;12.95;7.03;;;11.00;99.90;;;;;;4992892;28;20049;-74
2022/07/01 08:11:34;;;;;;;10.20;7.05;;;11.00;99.90;;;;;;4994156;28;20101;-75
2022/07/01 08:14:01;;;;;;;10.27;7.30;;;11.10;99.90;;;;;;4994636;28;20023;-74
2022/07/01 08:16:29;;;;;;;11.90;7.22;;;11.10;99.90;;;;;;4994324;28;20058;-75
2022/07/01 08:18:56;;;;;;;11.50;8.05;;;11.10;99.90;;;;;;4992715;28;20113;-75
2022/07/01 08:21:24;;;;;;;10.85;7.68;;;11.10;99.90;;;;;;4992646;28;20026;-74
2022/07/01 08:23:51;;;;;;;9.98;7.63;;;11.10;99.90;;;;;;4994174;28;20022;-75
2022/07/01 08:26:19;;;;;;;11.73;7.50;;;11.10;99.90;;;;;;4993952;28;20101;-75
2022/07/01 08:28:46;;;;;;;10.07;8.02;;;11.10;99.90;;;;;;4993810;28;20045;-75
2022/07/01 08:31:14;;;;;;;9.43;7.85;;;11.10;99.90;;;;;;4993799;28;20022;-75
2022/07/01 08:33:42;;;;;;;9.35;7.88;;;11.10;99.90;;;;;;4994004;28;20030;-75
2022/07/01 08:36:10;;;;;;;10.63;8.52;;;11.10;99.90;;;;;;4993714;28;20030;-74
2022/07/01 08:38:37;;;;;;;12.63;9.80;;;11.10;99.90;;;;;;4992390;28;20471;-75
2022/07/01 08:41:05;;;;;;;12.60;8.50;;;11.10;99.90;;;;;;4993663;28;20022;-74
2022/07/01 08:43:33;;;;;;;10.65;8.60;;;11.10;99.90;;;;;;4993642;28;20092;-74
2022/07/01 08:46:02;;;;;;;9.88;8.52;;;11.10;99.90;;;;;;4993993;28;20030;-76
2022/07/01 08:48:30;;;;;;;10.18;7.88;;;11.10;99.90;;;;;;4993671;28;20064;-76
2022/07/01 08:50:58;;;;;;;9.02;8.00;;;11.20;99.90;;;;;;4993558;28;20030;-76
2022/07/01 08:53:25;;;;;;;9.93;7.22;;;11.20;99.90;;;;;;4993483;28;20031;-77
2022/07/01 08:58:38;;;;;;;11.30;7.10;;;11.20;99.90;;;;;;4993806;28;20038;-77
2022/07/01 09:01:23;;;;;;;13.63;8.82;;;11.20;99.90;;;;;;4993618;28;20050;-78
2022/07/01 09:03:55;;;;;;;10.25;7.72;;;11.30;99.90;;;;;;4994704;28;20018;-79
2022/07/01 09:06:28;;;;;;;11.02;8.20;;;11.30;99.90;;;;;;4994794;28;20030;-78
2022/07/01 09:09:10;;;;;;;11.18;9.07;;;11.30;99.90;;;;;;4993732;28;20030;-76
2022/07/01 09:11:37;;;;;;;14.25;8.23;;;11.30;99.90;;;;;;4993893;28;20025;-76
2022/07/01 09:14:10;;;;;;;11.98;8.63;;;11.30;99.90;;;;;;4994433;28;20026;-78
2022/07/01 09:16:49;;;;;;;11.35;8.32;;;11.30;99.90;;;;;;4994996;28;20046;-78
2022/07/01 09:19:19;;;;;;;13.18;8.68;;;11.30;99.90;;;;;;4993253;28;20068;-78
2022/07/01 09:22:01;;;;;;;11.15;7.53;;;11.30;99.90;;;;;;4994787;28;20038;-78
2022/07/01 09:24:32;;;;;;;8.10;7.30;;;11.30;99.90;;;;;;4995192;28;20036;-78
2022/07/01 09:27:13;;;;;;;9.68;7.63;;;11.20;99.90;;;;;;4994137;28;20023;-78
2022/07/01 09:29:42;;;;;;;11.70;8.05;;;11.20;99.90;;;;;;4992420;28;20031;-77
2022/07/01 09:32:13;;;;;;;10.13;7.90;;;11.20;99.90;;;;;;4993526;28;20029;-77
2022/07/01 09:34:48;;;;;;;10.18;7.30;;;11.20;99.90;;;;;;4992168;28;20029;-77
2022/07/01 09:37:17;;;;;;;9.50;6.57;;;11.20;99.90;;;;;;4992350;28;20038;-77
2022/07/01 09:39:48;;;;;;;9.07;7.50;;;11.20;99.90;;;;;;4992026;28;20117;-77
2022/07/01 09:42:19;;;;;;;7.90;7.15;;;11.20;99.90;;;;;;4991964;28;20022;-76
2022/07/01 09:45:09;;;;;;;9.98;7.10;;;11.20;99.90;;;;;;4993954;28;20034;-79
2022/07/01 09:47:40;;;;;;;10.75;8.00;;;11.20;99.90;;;;;;4995225;28;20030;-78
2022/07/01 09:50:09;;;;;;;11.63;8.40;;;11.30;99.90;;;;;;4993135;28;20126;-77
2022/07/01 09:52:38;;;;;;;10.40;7.78;;;11.30;99.90;;;;;;4993587;28;20023;-78
2022/07/01 09:55:07;;;;;;;10.68;8.35;;;11.20;99.90;;;;;;4994675;28;20034;-78
2022/07/01 09:57:34;;;;;;;9.25;7.68;;;11.20;99.90;;;;;;4994283;28;20026;-78
2022/07/01 10:00:03;;;;;;;10.40;7.90;;;11.20;99.90;;;;;;4995223;28;20027;-78
2022/07/01 10:02:33;;;;;;;9.43;7.13;;;11.20;99.90;;;;;;4993867;28;20107;-79
2022/07/01 10:05:07;;;;;;;9.90;7.45;;;11.20;99.90;;;;;;4993700;28;20026;-78
2022/07/01 10:08:11;;;;;;;9.00;7.45;;;11.20;99.90;;;;;;4993665;28;20034;-80
2022/07/01 10:11:05;;;;;;;8.98;7.43;;;11.20;99.90;;;;;;4995330;28;20049;-79
2022/07/01 10:13:35;;;;;;;9.88;7.15;;;11.20;99.90;;;;;;4996889;28;20546;-79
2022/07/01 10:16:04;;;;;;;9.43;7.10;;;11.20;99.90;;;;;;4998418;28;20026;-78
2022/07/01 10:18:31;;;;;;;10.02;8.20;;;11.20;99.90;;;;;;4999447;28;20106;-78
2022/07/01 10:20:59;;;;;;;9.65;7.80;;;11.30;99.90;;;;;;4997152;28;20019;-80
2022/07/01 10:23:40;;;;;;;12.77;9.40;;;11.30;99.90;;;;;;4997134;28;20125;-79
2022/07/01 10:26:10;;;;;;;10.98;8.60;;;11.30;99.90;;;;;;4998518;28;20069;-79
2022/07/01 10:28:46;;;;;;;9.98;7.78;;;11.30;99.90;;;;;;4997617;28;20035;-79
2022/07/01 10:31:18;;;;;;;8.55;7.38;;;11.30;99.90;;;;;;4998282;28;20030;-78
2022/07/01 10:33:51;;;;;;;9.40;7.60;;;11.30;99.90;;;;;;4996817;28;20523;-78
2022/07/01 10:36:33;;;;;;;9.18;7.57;;;11.30;99.90;;;;;;4996572;28;20022;-78
2022/07/01 10:39:06;;;;;;;12.05;9.20;;;11.20;99.90;;;;;;4998654;28;20019;-78
2022/07/01 10:41:46;;;;;;;9.82;8.82;;;11.30;99.90;;;;;;4998190;28;20018;-77
2022/07/01 10:44:15;;;;;;;9.73;8.65;;;11.30;99.90;;;;;;4998678;28;20029;-77
2022/07/01 10:47:00;;;;;;;8.73;7.88;;;11.30;99.90;;;;;;4998194;28;20034;-77
2022/07/01 10:49:37;;;;;;;9.15;7.15;;;11.30;99.90;;;;;;4998915;28;20027;-77
2022/07/01 10:52:11;;;;;;;8.13;7.30;;;11.30;99.90;;;;;;5070322;23;20025;-79
2022/07/01 10:54:39;;;;;;;8.65;6.93;;;11.30;99.90;;;;;;5022695;28;20060;-76
2022/07/01 10:57:20;;;;;;;9.20;7.50;;;11.30;99.90;;;;;;5018346;28;20030;-78
2022/07/01 10:59:54;;;;;;;10.13;7.43;;;11.20;99.90;;;;;;5014524;28;20022;-77
2022/07/01 11:02:30;;;;;;;8.30;7.30;;;11.20;99.90;;;;;;5014203;28;20025;-77
2022/07/01 11:05:03;;;;;;;10.00;7.93;;;11.20;99.90;;;;;;5016596;28;20030;-77
2022/07/01 11:07:35;;;;;;;8.18;7.38;;;11.20;99.90;;;;;;5014298;28;20475;-76
2022/07/01 11:10:05;;;;;;;8.48;7.40;;;11.20;99.90;;;;;;5015822;28;20034;-76
2022/07/01 11:12:33;;;;;;;10.18;8.75;;;11.30;99.90;;;;;;5015033;28;20022;-76
2022/07/01 11:15:02;;;;;;;10.57;8.77;;;11.20;99.90;;;;;;5014898;28;20029;-77
2022/07/01 11:17:29;;;;;;;11.50;8.82;;;11.30;99.90;;;;;;5015289;28;20049;-76
2022/07/01 11:19:58;;;;;;;9.70;8.30;;;11.30;99.90;;;;;;5015328;28;20097;-76
2022/07/01 11:22:36;;;;;;;8.40;7.60;;;11.30;99.90;;;;;;5023072;28;20021;-78
2022/07/01 11:25:11;;;;;;;8.70;7.68;;;11.20;99.90;;;;;;5028203;28;20030;-77
2022/07/01 11:27:40;;;;;;;9.43;8.45;;;11.20;99.90;;;;;;5019065;28;20030;-78
2022/07/01 11:30:12;;;;;;;9.52;8.63;;;11.20;99.90;;;;;;5016921;28;20393;-77
2022/07/01 11:32:42;;;;;;;10.00;9.10;;;11.20;99.90;;;;;;5015971;28;20397;-78
2022/07/01 11:41:08;;;;;;;10.35;9.35;;;11.20;99.90;;;;;;5016933;28;20383;-77
2022/07/01 11:43:39;;;;;;;9.63;8.63;;;11.20;99.90;;;;;;5016304;28;20025;-78
2022/07/01 11:46:08;;;;;;;9.63;8.70;;;11.20;99.90;;;;;;5016193;28;20030;-77
2022/07/01 11:48:50;;;;;;;12.00;10.68;;;11.30;99.90;;;;;;5022295;28;20045;-78
2022/07/01 11:51:29;;;;;;;9.80;8.82;;;11.20;99.90;;;;;;5020978;28;20393;-77
2022/07/01 11:53:56;;;;;;;10.68;8.45;;;11.20;99.90;;;;;;5033243;28;20065;-77
2022/07/01 11:56:36;;;;;;;10.18;9.18;;;11.20;99.90;;;;;;5031198;28;20063;-77
2022/07/01 11:59:04;;;;;;;9.90;8.93;;;11.20;99.90;;;;;;5022309;28;20505;-78
2022/07/01 12:01:35;;;;;;;9.23;8.13;;;11.20;99.90;;;;;;5024392;28;20022;-77
2022/07/01 12:04:07;;;;;;;9.25;8.35;;;11.20;99.90;;;;;;5018141;28;20026;-78
2022/07/01 12:06:41;;;;;;;9.93;8.77;;;11.20;99.90;;;;;;5014370;28;20030;-78
2022/07/01 12:09:16;;;;;;;9.73;8.18;;;11.20;99.90;;;;;;5018557;28;20034;-78
2022/07/01 12:11:52;;;;;;;9.27;8.32;;;11.20;99.90;;;;;;5016535;28;20029;-79
2022/07/01 12:14:29;;;;;;;9.55;8.55;;;11.20;99.90;;;;;;5024347;28;20018;-78
2022/07/01 12:17:06;;;;;;;10.30;9.30;;;11.20;99.90;;;;;;5024143;28;20029;-79
2022/07/01 12:19:44;;;;;;;8.88;7.97;;;11.20;99.90;;;;;;5026554;28;20523;-80
2022/07/01 12:22:20;;;;;;;8.93;7.93;;;11.10;99.90;;;;;;5021529;28;20049;-79
2022/07/01 12:24:48;;;;;;;9.73;8.73;;;11.20;99.90;;;;;;5021484;28;20070;-79
2022/07/01 12:27:16;;;;;;;9.27;8.20;;;11.20;99.90;;;;;;5018213;28;20105;-78
2022/07/01 12:29:47;;;;;;;9.50;7.90;;;11.20;99.90;;;;;;5018539;28;20026;-77
2022/07/01 12:32:25;;;;;;;8.73;7.93;;;11.20;99.90;;;;;;5019663;28;20022;-78
2022/07/01 12:34:56;;;;;;;9.40;8.43;;;11.20;99.90;;;;;;5018347;28;20048;-78
2022/07/01 12:37:27;;;;;;;;;;;11.20;99.90;;;;;;5019448;28;20022;-78
2022/07/01 12:39:58;;;;;;;11.63;9.80;;;11.20;99.90;;;;;;5016160;28;19906;-78
2022/07/01 12:42:42;;;;;;;10.80;9.70;;;11.20;99.90;;;;;;5014533;28;20398;-77
2022/07/01 12:45:11;;;;;;;10.10;8.00;;;11.20;99.90;;;;;;5014083;28;20073;-77
2022/07/01 12:47:48;;;;;;;8.15;7.18;;;11.20;99.90;;;;;;5012812;28;20030;-77
2022/07/01 12:50:21;;;;;;;8.30;7.40;;;11.20;99.90;;;;;;5014005;28;20032;-77
2022/07/01 12:53:03;;;;;;;7.18;6.47;;;11.20;99.90;;;;;;5013689;28;20069;-77
2022/07/01 12:55:45;;;;;;;7.63;6.93;;;11.20;99.90;;;;;;5014027;28;20385;-77
2022/07/01 12:58:16;;;;;;;7.80;6.90;;;11.10;99.90;;;;;;5012350;28;20222;-77
2022/07/01 13:00:45;;;;;;;8.40;7.60;;;11.10;99.90;;;;;;5012216;28;20526;-78
2022/07/01 13:03:13;;;;;;;7.82;7.13;;;11.10;99.90;;;;;;5013624;28;20580;-77
2022/07/01 13:05:41;;;;;;;10.25;9.13;;;11.20;99.90;;;;;;5013584;28;20033;-78
2022/07/01 13:08:10;;;;;;;9.20;8.40;;;11.20;99.90;;;;;;5013966;28;20084;-77
2022/07/01 13:10:39;;;;;;;10.48;9.57;;;11.10;99.90;;;;;;5012309;28;20389;-77